sensor_id;sensor_type;location;lat;lon;timestamp;P1;durP1;ratioP1;P2;durP2;ratioP2
18576;SDS011;9418;52.694;13.294;2023-02-03T00:01:27;7.57;;;3.90;;
18576;SDS011;9418;52.694;13.294;2023-02-03T00:03:53;6.60;;;4.10;;
18576;SDS011;9418;52.694;13.294;2023-02-03T00:06:20;11.90;;;4.03;;
18576;SDS011;9418;52.694;13.294;2023-02-03T00:08:46;11.83;;;4.57;;
18576;SDS011;9418;52.694;13.294;2023-02-03T00:11:13;5.93;;;3.87;;
18576;SDS011;9418;52.694;13.294;2023-02-03T00:13:40;7.73;;;3.50;;
18576;SDS011;9418;52.694;13.294;2023-02-03T00:16:08;10.57;;;4.60;;
18576;SDS011;9418;52.694;13.294;2023-02-03T00:18:34;5.60;;;3.60;;
18576;SDS011;9418;52.694;13.294;2023-02-03T00:21:01;8.87;;;4.17;;
18576;SDS011;9418;52.694;13.294;2023-02-03T00:23:28;9.53;;;4.13;;
18576;SDS011;9418;52.694;13.294;2023-02-03T00:25:56;7.60;;;4.80;;
18576;SDS011;9418;52.694;13.294;2023-02-03T00:28:23;15.43;;;4.50;;
18576;SDS011;9418;52.694;13.294;2023-02-03T00:30:52;10.13;;;3.87;;
18576;SDS011;9418;52.694;13.294;2023-02-03T00:33:20;7.73;;;3.97;;
18576;SDS011;9418;52.694;13.294;2023-02-03T00:35:46;7.57;;;4.50;;
18576;SDS011;9418;52.694;13.294;2023-02-03T00:38:13;7.90;;;4.10;;
18576;SDS011;9418;52.694;13.294;2023-02-03T00:40:40;12.43;;;3.60;;
18576;SDS011;9418;52.694;13.294;2023-02-03T00:43:06;10.63;;;4.20;;
18576;SDS011;9418;52.694;13.294;2023-02-03T00:45:33;5.73;;;3.27;;
18576;SDS011;9418;52.694;13.294;2023-02-03T00:47:59;8.57;;;3.97;;
18576;SDS011;9418;52.694;13.294;2023-02-03T00:50:27;12.97;;;4.00;;
18576;SDS011;9418;52.694;13.294;2023-02-03T00:52:54;6.37;;;2.83;;
18576;SDS011;9418;52.694;13.294;2023-02-03T00:55:20;8.93;;;4.13;;
18576;SDS011;9418;52.694;13.294;2023-02-03T00:57:47;13.10;;;3.67;;
18576;SDS011;9418;52.694;13.294;2023-02-03T01:00:14;7.27;;;3.37;;
18576;SDS011;9418;52.694;13.294;2023-02-03T01:02:41;7.17;;;3.70;;
18576;SDS011;9418;52.694;13.294;2023-02-03T01:05:07;12.53;;;3.70;;
18576;SDS011;9418;52.694;13.294;2023-02-03T01:07:35;13.13;;;5.23;;
18576;SDS011;9418;52.694;13.294;2023-02-03T01:10:02;6.10;;;2.87;;
18576;SDS011;9418;52.694;13.294;2023-02-03T01:12:30;7.13;;;4.57;;
18576;SDS011;9418;52.694;13.294;2023-02-03T01:14:57;8.57;;;3.90;;
18576;SDS011;9418;52.694;13.294;2023-02-03T01:17:24;8.83;;;3.23;;
18576;SDS011;9418;52.694;13.294;2023-02-03T01:19:50;9.40;;;3.40;;
18576;SDS011;9418;52.694;13.294;2023-02-03T01:22:17;11.57;;;5.00;;
18576;SDS011;9418;52.694;13.294;2023-02-03T01:24:45;8.70;;;4.30;;
18576;SDS011;9418;52.694;13.294;2023-02-03T01:27:12;10.40;;;4.43;;
18576;SDS011;9418;52.694;13.294;2023-02-03T01:29:38;12.20;;;4.10;;
18576;SDS011;9418;52.694;13.294;2023-02-03T01:32:05;9.13;;;3.43;;
18576;SDS011;9418;52.694;13.294;2023-02-03T01:34:31;13.77;;;3.50;;
18576;SDS011;9418;52.694;13.294;2023-02-03T01:36:58;5.57;;;3.27;;
18576;SDS011;9418;52.694;13.294;2023-02-03T01:39:24;12.40;;;3.20;;
18576;SDS011;9418;52.694;13.294;2023-02-03T01:41:53;6.20;;;3.53;;
18576;SDS011;9418;52.694;13.294;2023-02-03T01:44:39;3.90;;;3.17;;
18576;SDS011;9418;52.694;13.294;2023-02-03T01:47:15;4.27;;;3.27;;
18576;SDS011;9418;52.694;13.294;2023-02-03T01:49:48;8.40;;;3.20;;
18576;SDS011;9418;52.694;13.294;2023-02-03T01:52:21;4.10;;;2.90;;
18576;SDS011;9418;52.694;13.294;2023-02-03T01:54:48;4.67;;;3.13;;
18576;SDS011;9418;52.694;13.294;2023-02-03T01:57:21;10.03;;;2.93;;
18576;SDS011;9418;52.694;13.294;2023-02-03T01:59:51;5.10;;;2.83;;
18576;SDS011;9418;52.694;13.294;2023-02-03T02:02:20;5.97;;;3.00;;
18576;SDS011;9418;52.694;13.294;2023-02-03T02:04:48;3.70;;;2.83;;
18576;SDS011;9418;52.694;13.294;2023-02-03T02:07:20;4.00;;;2.70;;
18576;SDS011;9418;52.694;13.294;2023-02-03T02:09:46;5.10;;;3.33;;
18576;SDS011;9418;52.694;13.294;2023-02-03T02:12:14;3.00;;;2.50;;
18576;SDS011;9418;52.694;13.294;2023-02-03T02:14:41;3.20;;;2.47;;
18576;SDS011;9418;52.694;13.294;2023-02-03T02:17:11;4.50;;;2.97;;
18576;SDS011;9418;52.694;13.294;2023-02-03T02:19:58;4.63;;;2.60;;
18576;SDS011;9418;52.694;13.294;2023-02-03T02:22:57;5.87;;;2.83;;
18576;SDS011;9418;52.694;13.294;2023-02-03T02:25:47;8.37;;;2.67;;
18576;SDS011;9418;52.694;13.294;2023-02-03T02:28:43;2.87;;;2.20;;
18576;SDS011;9418;52.694;13.294;2023-02-03T02:31:43;4.53;;;3.13;;
18576;SDS011;9418;52.694;13.294;2023-02-03T02:34:19;4.60;;;2.60;;
18576;SDS011;9418;52.694;13.294;2023-02-03T02:36:54;2.80;;;2.23;;
18576;SDS011;9418;52.694;13.294;2023-02-03T02:39:31;5.53;;;2.50;;
18576;SDS011;9418;52.694;13.294;2023-02-03T02:42:05;3.10;;;2.70;;
18576;SDS011;9418;52.694;13.294;2023-02-03T02:44:40;4.40;;;2.73;;
18576;SDS011;9418;52.694;13.294;2023-02-03T02:47:15;2.20;;;2.10;;
18576;SDS011;9418;52.694;13.294;2023-02-03T02:49:45;2.27;;;2.07;;
18576;SDS011;9418;52.694;13.294;2023-02-03T02:52:17;2.90;;;2.57;;
18576;SDS011;9418;52.694;13.294;2023-02-03T02:54:47;2.93;;;1.90;;
18576;SDS011;9418;52.694;13.294;2023-02-03T02:57:17;1.87;;;1.73;;
18576;SDS011;9418;52.694;13.294;2023-02-03T02:59:46;2.13;;;1.87;;
18576;SDS011;9418;52.694;13.294;2023-02-03T03:02:14;2.20;;;1.90;;
18576;SDS011;9418;52.694;13.294;2023-02-03T03:04:41;2.63;;;1.80;;
18576;SDS011;9418;52.694;13.294;2023-02-03T03:07:13;1.83;;;1.70;;
18576;SDS011;9418;52.694;13.294;2023-02-03T03:09:44;1.60;;;1.60;;
18576;SDS011;9418;52.694;13.294;2023-02-03T03:12:14;2.53;;;2.30;;
18576;SDS011;9418;52.694;13.294;2023-02-03T03:14:44;2.10;;;1.60;;
18576;SDS011;9418;52.694;13.294;2023-02-03T03:17:15;2.60;;;1.57;;
18576;SDS011;9418;52.694;13.294;2023-02-03T03:19:48;2.40;;;1.70;;
18576;SDS011;9418;52.694;13.294;2023-02-03T03:22:19;1.97;;;1.77;;
18576;SDS011;9418;52.694;13.294;2023-02-03T03:24:51;1.60;;;1.50;;
18576;SDS011;9418;52.694;13.294;2023-02-03T03:27:24;2.90;;;1.57;;
18576;SDS011;9418;52.694;13.294;2023-02-03T03:29:55;1.83;;;1.50;;
18576;SDS011;9418;52.694;13.294;2023-02-03T03:32:26;1.83;;;1.43;;
18576;SDS011;9418;52.694;13.294;2023-02-03T03:34:56;1.60;;;1.50;;
18576;SDS011;9418;52.694;13.294;2023-02-03T03:37:26;1.53;;;1.53;;
18576;SDS011;9418;52.694;13.294;2023-02-03T03:39:57;1.70;;;1.60;;
18576;SDS011;9418;52.694;13.294;2023-02-03T03:42:27;1.00;;;1.00;;
18576;SDS011;9418;52.694;13.294;2023-02-03T03:44:58;1.60;;;1.50;;
18576;SDS011;9418;52.694;13.294;2023-02-03T03:47:30;1.10;;;1.10;;
18576;SDS011;9418;52.694;13.294;2023-02-03T03:50:01;1.80;;;1.70;;
18576;SDS011;9418;52.694;13.294;2023-02-03T03:52:31;3.10;;;1.57;;
18576;SDS011;9418;52.694;13.294;2023-02-03T03:55:00;0.93;;;0.93;;
18576;SDS011;9418;52.694;13.294;2023-02-03T03:57:32;1.57;;;1.40;;
18576;SDS011;9418;52.694;13.294;2023-02-03T04:00:02;1.47;;;1.37;;
18576;SDS011;9418;52.694;13.294;2023-02-03T04:02:33;1.60;;;1.50;;
18576;SDS011;9418;52.694;13.294;2023-02-03T04:05:02;1.57;;;1.40;;
18576;SDS011;9418;52.694;13.294;2023-02-03T04:07:36;1.83;;;1.40;;
18576;SDS011;9418;52.694;13.294;2023-02-03T04:10:04;1.97;;;1.73;;
18576;SDS011;9418;52.694;13.294;2023-02-03T04:12:37;1.80;;;1.70;;
18576;SDS011;9418;52.694;13.294;2023-02-03T04:15:04;1.80;;;1.80;;
18576;SDS011;9418;52.694;13.294;2023-02-03T04:17:32;1.60;;;1.50;;
18576;SDS011;9418;52.694;13.294;2023-02-03T04:20:00;1.60;;;1.50;;
18576;SDS011;9418;52.694;13.294;2023-02-03T04:22:27;2.37;;;2.20;;
18576;SDS011;9418;52.694;13.294;2023-02-03T04:24:53;2.23;;;2.03;;
18576;SDS011;9418;52.694;13.294;2023-02-03T04:27:22;1.93;;;1.80;;
18576;SDS011;9418;52.694;13.294;2023-02-03T04:29:49;1.57;;;1.57;;
18576;SDS011;9418;52.694;13.294;2023-02-03T04:32:16;2.23;;;2.13;;
18576;SDS011;9418;52.694;13.294;2023-02-03T04:34:44;3.03;;;2.40;;
18576;SDS011;9418;52.694;13.294;2023-02-03T04:37:11;3.17;;;2.27;;
18576;SDS011;9418;52.694;13.294;2023-02-03T04:39:40;2.60;;;2.40;;
18576;SDS011;9418;52.694;13.294;2023-02-03T04:42:06;3.33;;;3.10;;
18576;SDS011;9418;52.694;13.294;2023-02-03T04:44:33;3.83;;;3.53;;
18576;SDS011;9418;52.694;13.294;2023-02-03T04:47:00;3.83;;;3.40;;
18576;SDS011;9418;52.694;13.294;2023-02-03T04:49:26;3.63;;;3.40;;
18576;SDS011;9418;52.694;13.294;2023-02-03T04:51:54;3.50;;;3.20;;
18576;SDS011;9418;52.694;13.294;2023-02-03T04:54:20;3.87;;;3.67;;
18576;SDS011;9418;52.694;13.294;2023-02-03T04:56:47;4.20;;;3.77;;
18576;SDS011;9418;52.694;13.294;2023-02-03T04:59:13;5.53;;;4.33;;
18576;SDS011;9418;52.694;13.294;2023-02-03T05:01:40;5.47;;;4.97;;
18576;SDS011;9418;52.694;13.294;2023-02-03T05:04:06;5.97;;;4.63;;
18576;SDS011;9418;52.694;13.294;2023-02-03T05:06:33;8.77;;;6.30;;
18576;SDS011;9418;52.694;13.294;2023-02-03T05:09:01;7.17;;;5.63;;
18576;SDS011;9418;52.694;13.294;2023-02-03T05:11:27;13.90;;;5.50;;
18576;SDS011;9418;52.694;13.294;2023-02-03T05:13:54;6.43;;;5.83;;
18576;SDS011;9418;52.694;13.294;2023-02-03T05:16:21;7.67;;;6.87;;
18576;SDS011;9418;52.694;13.294;2023-02-03T05:18:48;6.90;;;6.20;;
18576;SDS011;9418;52.694;13.294;2023-02-03T05:21:14;9.47;;;6.57;;
18576;SDS011;9418;52.694;13.294;2023-02-03T05:23:41;7.87;;;7.07;;
18576;SDS011;9418;52.694;13.294;2023-02-03T05:26:09;10.60;;;6.77;;
18576;SDS011;9418;52.694;13.294;2023-02-03T05:28:36;8.93;;;8.03;;
18576;SDS011;9418;52.694;13.294;2023-02-03T05:31:03;8.30;;;7.40;;
18576;SDS011;9418;52.694;13.294;2023-02-03T05:33:30;8.33;;;7.53;;
18576;SDS011;9418;52.694;13.294;2023-02-03T05:35:56;8.60;;;7.80;;
18576;SDS011;9418;52.694;13.294;2023-02-03T05:38:23;12.70;;;9.10;;
18576;SDS011;9418;52.694;13.294;2023-02-03T05:40:50;8.80;;;8.00;;
18576;SDS011;9418;52.694;13.294;2023-02-03T05:43:37;8.03;;;7.37;;
18576;SDS011;9418;52.694;13.294;2023-02-03T05:46:04;10.20;;;9.20;;
18576;SDS011;9418;52.694;13.294;2023-02-03T05:48:32;11.37;;;9.60;;
18576;SDS011;9418;52.694;13.294;2023-02-03T05:50:59;16.90;;;9.53;;
18576;SDS011;9418;52.694;13.294;2023-02-03T05:53:26;11.60;;;10.50;;
18576;SDS011;9418;52.694;13.294;2023-02-03T05:55:52;15.40;;;11.30;;
18576;SDS011;9418;52.694;13.294;2023-02-03T05:58:19;12.57;;;11.00;;
18576;SDS011;9418;52.694;13.294;2023-02-03T06:00:47;12.20;;;11.10;;
18576;SDS011;9418;52.694;13.294;2023-02-03T06:03:13;11.07;;;9.97;;
18576;SDS011;9418;52.694;13.294;2023-02-03T06:05:40;12.30;;;10.33;;
18576;SDS011;9418;52.694;13.294;2023-02-03T06:08:07;11.97;;;10.77;;
18576;SDS011;9418;52.694;13.294;2023-02-03T06:10:34;13.30;;;11.43;;
18576;SDS011;9418;52.694;13.294;2023-02-03T06:13:06;12.60;;;11.27;;
18576;SDS011;9418;52.694;13.294;2023-02-03T06:15:33;11.60;;;10.40;;
18576;SDS011;9418;52.694;13.294;2023-02-03T06:18:01;11.93;;;10.73;;
18576;SDS011;9418;52.694;13.294;2023-02-03T06:20:28;13.87;;;11.43;;
18576;SDS011;9418;52.694;13.294;2023-02-03T06:22:54;12.73;;;11.43;;
18576;SDS011;9418;52.694;13.294;2023-02-03T06:25:21;11.87;;;10.70;;
18576;SDS011;9418;52.694;13.294;2023-02-03T06:27:48;12.50;;;10.70;;
18576;SDS011;9418;52.694;13.294;2023-02-03T06:30:15;11.20;;;10.20;;
18576;SDS011;9418;52.694;13.294;2023-02-03T06:32:41;12.60;;;11.30;;
18576;SDS011;9418;52.694;13.294;2023-02-03T06:35:09;12.30;;;11.10;;
18576;SDS011;9418;52.694;13.294;2023-02-03T06:37:36;12.50;;;10.10;;
18576;SDS011;9418;52.694;13.294;2023-02-03T06:40:02;18.40;;;10.20;;
18576;SDS011;9418;52.694;13.294;2023-02-03T06:42:29;11.17;;;9.97;;
18576;SDS011;9418;52.694;13.294;2023-02-03T06:44:56;11.53;;;10.43;;
18576;SDS011;9418;52.694;13.294;2023-02-03T06:47:23;14.83;;;10.97;;
18576;SDS011;9418;52.694;13.294;2023-02-03T06:49:49;12.07;;;10.37;;
18576;SDS011;9418;52.694;13.294;2023-02-03T06:52:18;13.57;;;10.37;;
18576;SDS011;9418;52.694;13.294;2023-02-03T06:54:44;15.00;;;11.57;;
18576;SDS011;9418;52.694;13.294;2023-02-03T06:57:11;14.87;;;10.27;;
18576;SDS011;9418;52.694;13.294;2023-02-03T06:59:37;12.40;;;10.00;;
18576;SDS011;9418;52.694;13.294;2023-02-03T07:02:04;13.10;;;10.00;;
18576;SDS011;9418;52.694;13.294;2023-02-03T07:04:30;10.07;;;9.07;;
18576;SDS011;9418;52.694;13.294;2023-02-03T07:06:57;12.80;;;8.93;;
18576;SDS011;9418;52.694;13.294;2023-02-03T07:09:25;10.10;;;9.07;;
18576;SDS011;9418;52.694;13.294;2023-02-03T07:11:51;9.20;;;8.30;;
18576;SDS011;9418;52.694;13.294;2023-02-03T07:14:18;8.80;;;7.83;;
18576;SDS011;9418;52.694;13.294;2023-02-03T07:16:44;12.10;;;8.93;;
18576;SDS011;9418;52.694;13.294;2023-02-03T07:19:11;11.30;;;8.27;;
18576;SDS011;9418;52.694;13.294;2023-02-03T07:21:37;8.27;;;7.23;;
18576;SDS011;9418;52.694;13.294;2023-02-03T07:24:04;10.57;;;7.30;;
18576;SDS011;9418;52.694;13.294;2023-02-03T07:26:32;8.00;;;7.20;;
18576;SDS011;9418;52.694;13.294;2023-02-03T07:28:59;12.17;;;7.67;;
18576;SDS011;9418;52.694;13.294;2023-02-03T07:31:25;6.70;;;6.10;;
18576;SDS011;9418;52.694;13.294;2023-02-03T07:33:52;9.53;;;6.90;;
18576;SDS011;9418;52.694;13.294;2023-02-03T07:36:18;7.70;;;7.00;;
18576;SDS011;9418;52.694;13.294;2023-02-03T07:38:45;7.37;;;6.50;;
18576;SDS011;9418;52.694;13.294;2023-02-03T07:41:11;10.70;;;5.83;;
18576;SDS011;9418;52.694;13.294;2023-02-03T07:43:39;9.80;;;6.33;;
18576;SDS011;9418;52.694;13.294;2023-02-03T07:46:06;5.90;;;5.33;;
18576;SDS011;9418;52.694;13.294;2023-02-03T07:48:32;7.73;;;6.00;;
18576;SDS011;9418;52.694;13.294;2023-02-03T07:50:59;10.07;;;6.37;;
18576;SDS011;9418;52.694;13.294;2023-02-03T07:53:25;9.70;;;6.20;;
18576;SDS011;9418;52.694;13.294;2023-02-03T07:55:52;11.10;;;6.10;;
18576;SDS011;9418;52.694;13.294;2023-02-03T07:58:18;8.93;;;5.63;;
18576;SDS011;9418;52.694;13.294;2023-02-03T08:00:46;5.43;;;4.93;;
18576;SDS011;9418;52.694;13.294;2023-02-03T08:03:13;5.87;;;5.33;;
18576;SDS011;9418;52.694;13.294;2023-02-03T08:05:39;5.00;;;4.60;;
18576;SDS011;9418;52.694;13.294;2023-02-03T08:08:06;6.10;;;5.47;;
18576;SDS011;9418;52.694;13.294;2023-02-03T08:10:33;5.37;;;5.00;;
18576;SDS011;9418;52.694;13.294;2023-02-03T08:12:59;5.70;;;4.90;;
18576;SDS011;9418;52.694;13.294;2023-02-03T08:15:26;5.23;;;4.67;;
18576;SDS011;9418;52.694;13.294;2023-02-03T08:17:54;4.73;;;4.33;;
18576;SDS011;9418;52.694;13.294;2023-02-03T08:20:20;5.93;;;5.37;;
18576;SDS011;9418;52.694;13.294;2023-02-03T08:22:47;4.67;;;4.20;;
18576;SDS011;9418;52.694;13.294;2023-02-03T08:25:14;3.77;;;3.57;;
18576;SDS011;9418;52.694;13.294;2023-02-03T08:27:41;4.77;;;4.20;;
18576;SDS011;9418;52.694;13.294;2023-02-03T08:30:08;4.87;;;4.30;;
18576;SDS011;9418;52.694;13.294;2023-02-03T08:32:37;5.47;;;3.95;;
18576;SDS011;9418;52.694;13.294;2023-02-03T08:35:06;4.80;;;4.47;;
18576;SDS011;9418;52.694;13.294;2023-02-03T08:37:33;4.23;;;3.93;;
18576;SDS011;9418;52.694;13.294;2023-02-03T08:39:59;5.67;;;3.90;;
18576;SDS011;9418;52.694;13.294;2023-02-03T08:42:26;4.37;;;3.37;;
18576;SDS011;9418;52.694;13.294;2023-02-03T08:44:53;3.73;;;3.53;;
18576;SDS011;9418;52.694;13.294;2023-02-03T08:47:19;5.03;;;3.83;;
18576;SDS011;9418;52.694;13.294;2023-02-03T08:49:46;4.20;;;3.90;;
18576;SDS011;9418;52.694;13.294;2023-02-03T08:52:14;3.47;;;3.27;;
18576;SDS011;9418;52.694;13.294;2023-02-03T08:54:41;3.90;;;3.50;;
18576;SDS011;9418;52.694;13.294;2023-02-03T08:57:08;3.73;;;3.43;;
18576;SDS011;9418;52.694;13.294;2023-02-03T08:59:37;3.80;;;3.40;;
18576;SDS011;9418;52.694;13.294;2023-02-03T09:02:05;4.43;;;3.40;;
18576;SDS011;9418;52.694;13.294;2023-02-03T09:04:33;3.53;;;3.23;;
18576;SDS011;9418;52.694;13.294;2023-02-03T09:07:00;3.03;;;2.80;;
18576;SDS011;9418;52.694;13.294;2023-02-03T09:09:30;3.20;;;3.00;;
18576;SDS011;9418;52.694;13.294;2023-02-03T09:11:57;3.40;;;3.10;;
18576;SDS011;9418;52.694;13.294;2023-02-03T09:14:26;3.17;;;2.97;;
18576;SDS011;9418;52.694;13.294;2023-02-03T09:16:53;2.77;;;2.57;;
18576;SDS011;9418;52.694;13.294;2023-02-03T09:19:19;2.93;;;2.83;;
18576;SDS011;9418;52.694;13.294;2023-02-03T09:21:46;2.57;;;2.37;;
18576;SDS011;9418;52.694;13.294;2023-02-03T09:24:13;3.20;;;3.00;;
18576;SDS011;9418;52.694;13.294;2023-02-03T09:26:41;2.77;;;2.57;;
18576;SDS011;9418;52.694;13.294;2023-02-03T09:29:07;2.47;;;2.27;;
18576;SDS011;9418;52.694;13.294;2023-02-03T09:31:34;2.73;;;2.63;;
18576;SDS011;9418;52.694;13.294;2023-02-03T09:34:01;2.80;;;2.60;;
18576;SDS011;9418;52.694;13.294;2023-02-03T09:36:28;3.13;;;2.60;;
18576;SDS011;9418;52.694;13.294;2023-02-03T09:38:55;2.20;;;2.10;;
18576;SDS011;9418;52.694;13.294;2023-02-03T09:41:25;3.50;;;2.40;;
18576;SDS011;9418;52.694;13.294;2023-02-03T09:44:11;5.47;;;2.90;;
18576;SDS011;9418;52.694;13.294;2023-02-03T09:46:43;4.40;;;2.40;;
18576;SDS011;9418;52.694;13.294;2023-02-03T09:49:13;2.40;;;2.30;;
18576;SDS011;9418;52.694;13.294;2023-02-03T09:51:48;4.93;;;2.70;;
18576;SDS011;9418;52.694;13.294;2023-02-03T09:54:18;3.23;;;2.27;;
18576;SDS011;9418;52.694;13.294;2023-02-03T09:56:48;2.00;;;1.90;;
18576;SDS011;9418;52.694;13.294;2023-02-03T09:59:20;2.30;;;2.10;;
18576;SDS011;9418;52.694;13.294;2023-02-03T10:01:49;3.00;;;2.43;;
18576;SDS011;9418;52.694;13.294;2023-02-03T10:04:25;2.20;;;2.10;;
18576;SDS011;9418;52.694;13.294;2023-02-03T10:07:00;2.60;;;2.40;;
18576;SDS011;9418;52.694;13.294;2023-02-03T10:09:37;5.47;;;2.00;;
18576;SDS011;9418;52.694;13.294;2023-02-03T10:15:21;6.13;;;1.97;;
18576;SDS011;9418;52.694;13.294;2023-02-03T10:18:05;2.97;;;1.90;;
18576;SDS011;9418;52.694;13.294;2023-02-03T10:20:34;4.20;;;2.20;;
18576;SDS011;9418;52.694;13.294;2023-02-03T10:23:06;2.23;;;1.60;;
18576;SDS011;9418;52.694;13.294;2023-02-03T10:25:38;3.30;;;1.43;;
18576;SDS011;9418;52.694;13.294;2023-02-03T10:28:09;3.53;;;1.60;;
18576;SDS011;9418;52.694;13.294;2023-02-03T10:30:43;8.10;;;2.10;;
18576;SDS011;9418;52.694;13.294;2023-02-03T10:33:14;4.13;;;1.80;;
18576;SDS011;9418;52.694;13.294;2023-02-03T10:35:43;10.03;;;1.50;;
18576;SDS011;9418;52.694;13.294;2023-02-03T10:38:18;10.43;;;2.47;;
18576;SDS011;9418;52.694;13.294;2023-02-03T10:41:04;9.07;;;1.83;;
18576;SDS011;9418;52.694;13.294;2023-02-03T10:43:30;9.57;;;2.57;;
18576;SDS011;9418;52.694;13.294;2023-02-03T10:46:17;8.37;;;2.50;;
18576;SDS011;9418;52.694;13.294;2023-02-03T10:48:45;6.07;;;2.60;;
18576;SDS011;9418;52.694;13.294;2023-02-03T10:51:14;5.13;;;2.77;;
18576;SDS011;9418;52.694;13.294;2023-02-03T10:53:45;4.70;;;2.20;;
18576;SDS011;9418;52.694;13.294;2023-02-03T10:56:12;10.77;;;3.00;;
18576;SDS011;9418;52.694;13.294;2023-02-03T10:58:45;11.30;;;2.40;;
18576;SDS011;9418;52.694;13.294;2023-02-03T11:01:13;5.80;;;2.33;;
18576;SDS011;9418;52.694;13.294;2023-02-03T11:03:43;7.10;;;2.83;;
18576;SDS011;9418;52.694;13.294;2023-02-03T11:06:18;11.87;;;3.30;;
18576;SDS011;9418;52.694;13.294;2023-02-03T11:08:46;15.20;;;3.70;;
18576;SDS011;9418;52.694;13.294;2023-02-03T11:11:15;11.23;;;3.23;;
18576;SDS011;9418;52.694;13.294;2023-02-03T11:13:48;15.63;;;2.90;;
18576;SDS011;9418;52.694;13.294;2023-02-03T11:16:18;8.20;;;2.70;;
18576;SDS011;9418;52.694;13.294;2023-02-03T11:18:52;11.80;;;3.80;;
18576;SDS011;9418;52.694;13.294;2023-02-03T11:21:21;20.77;;;3.60;;
18576;SDS011;9418;52.694;13.294;2023-02-03T11:23:51;12.83;;;2.97;;
18576;SDS011;9418;52.694;13.294;2023-02-03T11:26:21;7.50;;;2.43;;
18576;SDS011;9418;52.694;13.294;2023-02-03T11:28:51;15.83;;;3.70;;
18576;SDS011;9418;52.694;13.294;2023-02-03T11:31:22;12.40;;;3.53;;
18576;SDS011;9418;52.694;13.294;2023-02-03T11:33:53;20.13;;;4.03;;
18576;SDS011;9418;52.694;13.294;2023-02-03T11:36:29;15.13;;;3.10;;
18576;SDS011;9418;52.694;13.294;2023-02-03T11:41:48;16.93;;;3.27;;
18576;SDS011;9418;52.694;13.294;2023-02-03T11:44:16;22.00;;;4.40;;
18576;SDS011;9418;52.694;13.294;2023-02-03T11:46:45;19.07;;;4.70;;
18576;SDS011;9418;52.694;13.294;2023-02-03T11:49:19;20.37;;;4.70;;
18576;SDS011;9418;52.694;13.294;2023-02-03T11:52:11;17.37;;;4.43;;
18576;SDS011;9418;52.694;13.294;2023-02-03T11:54:54;20.93;;;5.10;;
18576;SDS011;9418;52.694;13.294;2023-02-03T11:57:32;22.80;;;4.77;;
18576;SDS011;9418;52.694;13.294;2023-02-03T12:00:11;25.63;;;5.10;;
18576;SDS011;9418;52.694;13.294;2023-02-03T12:05:43;22.50;;;5.27;;
18576;SDS011;9418;52.694;13.294;2023-02-03T12:08:26;22.63;;;5.50;;
18576;SDS011;9418;52.694;13.294;2023-02-03T12:11:07;23.10;;;5.13;;
18576;SDS011;9418;52.694;13.294;2023-02-03T12:13:48;17.30;;;5.60;;
18576;SDS011;9418;52.694;13.294;2023-02-03T12:16:40;14.07;;;4.77;;
18576;SDS011;9418;52.694;13.294;2023-02-03T12:19:24;26.80;;;5.80;;
18576;SDS011;9418;52.694;13.294;2023-02-03T12:22:03;25.07;;;7.43;;
18576;SDS011;9418;52.694;13.294;2023-02-03T12:24:40;22.47;;;5.73;;
18576;SDS011;9418;52.694;13.294;2023-02-03T12:27:19;26.20;;;5.60;;
18576;SDS011;9418;52.694;13.294;2023-02-03T12:29:54;24.20;;;6.37;;
18576;SDS011;9418;52.694;13.294;2023-02-03T12:32:25;20.93;;;5.40;;
18576;SDS011;9418;52.694;13.294;2023-02-03T12:34:58;33.67;;;8.27;;
18576;SDS011;9418;52.694;13.294;2023-02-03T12:37:33;25.60;;;6.90;;
18576;SDS011;9418;52.694;13.294;2023-02-03T12:40:11;15.53;;;3.70;;
18576;SDS011;9418;52.694;13.294;2023-02-03T12:42:42;10.30;;;3.03;;
18576;SDS011;9418;52.694;13.294;2023-02-03T12:45:16;11.33;;;2.30;;
18576;SDS011;9418;52.694;13.294;2023-02-03T12:47:46;12.93;;;2.37;;
18576;SDS011;9418;52.694;13.294;2023-02-03T12:50:17;6.73;;;2.27;;
18576;SDS011;9418;52.694;13.294;2023-02-03T12:52:49;10.60;;;3.40;;
18576;SDS011;9418;52.694;13.294;2023-02-03T12:55:21;9.60;;;3.23;;
18576;SDS011;9418;52.694;13.294;2023-02-03T12:57:53;12.57;;;3.20;;
18576;SDS011;9418;52.694;13.294;2023-02-03T13:00:28;13.70;;;4.30;;
18576;SDS011;9418;52.694;13.294;2023-02-03T13:03:04;5.93;;;2.93;;
18576;SDS011;9418;52.694;13.294;2023-02-03T13:05:38;15.07;;;3.87;;
18576;SDS011;9418;52.694;13.294;2023-02-03T13:08:12;14.87;;;3.23;;
18576;SDS011;9418;52.694;13.294;2023-02-03T13:10:47;7.20;;;2.60;;
18576;SDS011;9418;52.694;13.294;2023-02-03T13:13:19;9.57;;;2.73;;
18576;SDS011;9418;52.694;13.294;2023-02-03T13:15:52;14.53;;;3.60;;
18576;SDS011;9418;52.694;13.294;2023-02-03T13:18:23;11.80;;;3.70;;
18576;SDS011;9418;52.694;13.294;2023-02-03T13:20:53;12.90;;;4.63;;
18576;SDS011;9418;52.694;13.294;2023-02-03T13:23:22;16.30;;;4.50;;
18576;SDS011;9418;52.694;13.294;2023-02-03T13:25:53;16.63;;;3.80;;
18576;SDS011;9418;52.694;13.294;2023-02-03T13:28:37;17.13;;;4.77;;
18576;SDS011;9418;52.694;13.294;2023-02-03T13:31:16;16.80;;;4.37;;
18576;SDS011;9418;52.694;13.294;2023-02-03T13:34:00;16.23;;;5.30;;
18576;SDS011;9418;52.694;13.294;2023-02-03T13:36:48;20.40;;;3.87;;
18576;SDS011;9418;52.694;13.294;2023-02-03T13:39:51;10.23;;;4.00;;
18576;SDS011;9418;52.694;13.294;2023-02-03T13:42:30;16.97;;;4.40;;
18576;SDS011;9418;52.694;13.294;2023-02-03T13:45:04;20.17;;;4.30;;
18576;SDS011;9418;52.694;13.294;2023-02-03T13:47:36;18.30;;;4.47;;
18576;SDS011;9418;52.694;13.294;2023-02-03T13:50:05;30.37;;;6.00;;
18576;SDS011;9418;52.694;13.294;2023-02-03T13:52:43;19.47;;;5.40;;
18576;SDS011;9418;52.694;13.294;2023-02-03T13:55:24;17.37;;;5.00;;
18576;SDS011;9418;52.694;13.294;2023-02-03T13:57:53;21.33;;;5.17;;
18576;SDS011;9418;52.694;13.294;2023-02-03T14:03:39;24.47;;;4.83;;
18576;SDS011;9418;52.694;13.294;2023-02-03T14:06:09;20.70;;;5.37;;
18576;SDS011;9418;52.694;13.294;2023-02-03T14:08:51;28.27;;;5.97;;
18576;SDS011;9418;52.694;13.294;2023-02-03T14:11:44;23.83;;;5.57;;
18576;SDS011;9418;52.694;13.294;2023-02-03T14:17:08;22.43;;;5.80;;
18576;SDS011;9418;52.694;13.294;2023-02-03T14:20:39;27.63;;;5.77;;
18576;SDS011;9418;52.694;13.294;2023-02-03T14:23:10;25.03;;;5.73;;
18576;SDS011;9418;52.694;13.294;2023-02-03T14:25:41;24.60;;;5.33;;
18576;SDS011;9418;52.694;13.294;2023-02-03T14:28:12;29.43;;;6.90;;
18576;SDS011;9418;52.694;13.294;2023-02-03T14:31:00;26.93;;;5.90;;
18576;SDS011;9418;52.694;13.294;2023-02-03T14:33:48;27.50;;;6.20;;
18576;SDS011;9418;52.694;13.294;2023-02-03T14:36:31;27.37;;;5.93;;
18576;SDS011;9418;52.694;13.294;2023-02-03T14:42:03;29.17;;;7.17;;
18576;SDS011;9418;52.694;13.294;2023-02-03T14:44:42;33.20;;;6.90;;
18576;SDS011;9418;52.694;13.294;2023-02-03T14:47:22;32.63;;;7.40;;
18576;SDS011;9418;52.694;13.294;2023-02-03T14:50:03;19.40;;;7.40;;
18576;SDS011;9418;52.694;13.294;2023-02-03T14:52:46;23.53;;;6.07;;
18576;SDS011;9418;52.694;13.294;2023-02-03T14:55:29;35.40;;;6.60;;
18576;SDS011;9418;52.694;13.294;2023-02-03T14:58:13;30.43;;;7.20;;
18576;SDS011;9418;52.694;13.294;2023-02-03T15:00:46;30.10;;;6.63;;
18576;SDS011;9418;52.694;13.294;2023-02-03T15:03:17;40.57;;;7.13;;
18576;SDS011;9418;52.694;13.294;2023-02-03T15:05:47;29.20;;;6.40;;
18576;SDS011;9418;52.694;13.294;2023-02-03T15:11:14;25.83;;;6.07;;
18576;SDS011;9418;52.694;13.294;2023-02-03T15:13:52;29.03;;;5.50;;
18576;SDS011;9418;52.694;13.294;2023-02-03T15:16:20;32.60;;;6.90;;
18576;SDS011;9418;52.694;13.294;2023-02-03T15:18:52;22.57;;;5.97;;
18576;SDS011;9418;52.694;13.294;2023-02-03T15:21:21;21.07;;;5.60;;
18576;SDS011;9418;52.694;13.294;2023-02-03T15:23:50;24.77;;;5.73;;